createdAt,value
2023-03-28T00:00:46.078Z,44.96
2023-03-28T00:01:46.099Z,54.91
2023-03-28T00:02:46.644Z,51.42
2023-03-28T00:03:46.114Z,54.96
2023-03-28T00:04:46.041Z,44.68
2023-03-28T00:05:46.042Z,61.30
2023-03-28T00:06:46.040Z,44.37
2023-03-28T00:07:46.038Z,52.91
2023-03-28T00:08:46.637Z,59.84
2023-03-28T00:09:46.008Z,60.47
2023-03-28T00:10:46.007Z,58.46
2023-03-28T00:11:46.016Z,57.50
2023-03-28T00:12:45.978Z,51.86
2023-03-28T00:13:45.979Z,55.22
2023-03-28T00:14:45.994Z,59.78
2023-03-28T00:15:45.985Z,59.95
2023-03-28T00:16:45.950Z,57.93
2023-03-28T00:17:45.990Z,57.44
2023-03-28T00:18:45.933Z,51.78
2023-03-28T00:19:45.993Z,47.38
2023-03-28T00:20:45.925Z,50.12
2023-03-28T00:21:45.915Z,43.04
2023-03-28T00:24:45.739Z,56.69
2023-03-28T00:25:45.741Z,55.22
2023-03-28T00:26:46.826Z,53.49
2023-03-28T00:27:46.835Z,43.17
2023-03-28T00:28:46.795Z,62.31
2023-03-28T00:29:46.802Z,54.99
2023-03-28T00:30:46.798Z,54.38
2023-03-28T00:31:46.841Z,56.17
2023-03-28T00:32:46.798Z,50.77
2023-03-28T00:33:46.768Z,56.91
2023-03-28T00:34:46.755Z,63.06
2023-03-28T00:35:46.798Z,53.20
2023-03-28T00:36:46.779Z,56.78
2023-03-28T00:37:46.750Z,53.66
2023-03-28T00:38:46.722Z,58.01
2023-03-28T00:39:46.717Z,45.44
2023-03-28T00:40:46.711Z,59.90
2023-03-28T00:41:46.713Z,53.84
2023-03-28T00:42:46.699Z,42.18
2023-03-28T00:43:46.694Z,44.00
2023-03-28T00:44:46.690Z,45.52
2023-03-28T00:45:56.121Z,57.74
2023-03-28T00:46:48.686Z,55.16
2023-03-28T00:47:46.771Z,55.62
2023-03-28T00:48:46.717Z,61.19
2023-03-28T00:49:46.645Z,44.37
2023-03-28T00:50:47.094Z,42.70
2023-03-28T00:51:46.863Z,55.91
2023-03-28T00:52:46.897Z,50.17
2023-03-28T00:53:46.904Z,53.45
2023-03-28T00:54:46.871Z,55.23
2023-03-28T00:55:46.591Z,42.52
2023-03-28T00:56:46.619Z,43.76
2023-03-28T00:57:46.601Z,51.61
2023-03-28T00:58:46.576Z,52.42
2023-03-28T00:59:46.569Z,51.82
2023-03-28T01:00:46.543Z,50.74
2023-03-28T01:01:46.591Z,49.67
2023-03-28T01:02:46.567Z,47.81
2023-03-28T01:03:46.767Z,61.77
2023-03-28T01:04:46.511Z,45.55
2023-03-28T01:05:46.513Z,45.03
2023-03-28T01:06:46.521Z,58.79
2023-03-28T01:07:46.510Z,59.49
2023-03-28T01:08:46.471Z,52.68
2023-03-28T01:09:46.481Z,64.16
2023-03-28T01:10:46.468Z,51.47
2023-03-28T01:11:46.477Z,46.48
2023-03-28T01:12:46.457Z,59.14
2023-03-28T01:13:46.462Z,50.75
2023-03-28T01:14:46.439Z,62.71
2023-03-28T01:15:46.450Z,50.10
2023-03-28T01:16:47.103Z,58.58
2023-03-28T01:17:46.594Z,57.75
2023-03-28T01:18:46.407Z,54.85
2023-03-28T01:19:46.399Z,56.03
2023-03-28T01:20:46.391Z,61.42
2023-03-28T01:21:46.378Z,58.61
2023-03-28T01:22:57.167Z,48.82
2023-03-28T01:23:47.376Z,41.77
2023-03-28T01:24:46.353Z,45.30
2023-03-28T01:25:46.337Z,43.43
2023-03-28T01:26:46.351Z,46.64
2023-03-28T01:27:46.342Z,61.05
2023-03-28T01:28:46.330Z,60.43
2023-03-28T01:29:46.315Z,53.28
2023-03-28T01:30:46.307Z,55.93
2023-03-28T01:31:46.428Z,48.36
2023-03-28T01:32:47.122Z,48.61
2023-03-28T01:33:46.279Z,61.84
2023-03-28T01:34:46.308Z,60.56
2023-03-28T01:35:46.302Z,59.21
2023-03-28T01:36:46.253Z,50.36
2023-03-28T01:37:46.245Z,61.57
2023-03-28T01:38:46.248Z,49.46
2023-03-28T01:39:46.265Z,55.44
2023-03-28T01:40:46.277Z,43.01
2023-03-28T01:41:46.243Z,51.01
2023-03-28T01:42:46.223Z,59.40
2023-03-28T01:43:46.234Z,49.25
2023-03-28T01:44:46.218Z,60.78
2023-03-28T01:45:46.215Z,45.52
2023-03-28T01:46:46.209Z,52.71
2023-03-28T01:47:46.236Z,41.24
2023-03-28T01:48:46.166Z,48.70
2023-03-28T01:49:47.171Z,57.65
2023-03-28T01:50:46.157Z,50.60
2023-03-28T01:51:46.187Z,50.09
2023-03-28T01:52:46.140Z,46.31
2023-03-28T01:53:46.144Z,46.86
2023-03-28T01:54:46.128Z,58.67
2023-03-28T01:55:46.127Z,45.29
2023-03-28T01:56:46.166Z,46.71
2023-03-28T01:57:46.331Z,51.98
2023-03-28T01:58:46.099Z,47.89
2023-03-28T01:59:46.112Z,43.21
2023-03-28T02:00:46.150Z,59.01
2023-03-28T02:01:46.096Z,50.15
2023-03-28T02:02:46.144Z,59.93
2023-03-28T02:03:46.059Z,47.34
2023-03-28T02:04:46.063Z,43.17
2023-03-28T02:05:46.048Z,42.73
2023-03-28T02:06:46.047Z,50.67
2023-03-28T02:07:46.028Z,54.66
2023-03-28T02:08:46.026Z,51.41
2023-03-28T02:09:46.018Z,45.66
2023-03-28T02:10:46.022Z,58.92
2023-03-28T02:11:46.004Z,51.51
2023-03-28T02:12:45.998Z,47.03
2023-03-28T02:13:45.992Z,55.39
2023-03-28T02:14:45.998Z,55.23
2023-03-28T02:15:45.977Z,47.14
2023-03-28T02:16:46.020Z,50.80
2023-03-28T02:17:45.986Z,49.75
2023-03-28T02:18:45.949Z,47.01
2023-03-28T02:19:45.958Z,49.06
2023-03-28T02:20:45.940Z,49.42
2023-03-28T02:21:45.925Z,53.23
2023-03-28T02:22:45.935Z,54.72
2023-03-28T02:23:45.912Z,57.19
2023-03-28T02:24:45.903Z,60.60
2023-03-28T02:25:45.892Z,58.57
2023-03-28T02:26:47.781Z,48.47
2023-03-28T02:27:45.887Z,55.27
2023-03-28T02:28:45.862Z,50.54
2023-03-28T02:29:45.866Z,52.77
2023-03-28T02:30:45.865Z,64.10
2023-03-28T02:31:45.852Z,58.38
2023-03-28T02:32:45.862Z,48.37
2023-03-28T02:33:45.838Z,60.06
2023-03-28T02:34:45.824Z,62.13
2023-03-28T02:35:45.831Z,53.63
2023-03-28T02:36:45.812Z,57.33
2023-03-28T02:37:45.810Z,56.89
2023-03-28T02:38:45.795Z,52.35
2023-03-28T02:39:45.783Z,59.99
2023-03-28T02:40:45.817Z,64.71
2023-03-28T02:41:45.779Z,64.14
2023-03-28T02:42:45.776Z,59.00
2023-03-28T02:43:45.753Z,58.06
2023-03-28T02:44:45.780Z,59.52
2023-03-28T02:45:45.779Z,56.80
2023-03-28T02:46:45.760Z,54.47
2023-03-28T02:47:45.751Z,56.53
2023-03-28T02:48:45.710Z,59.27
2023-03-28T02:49:50.565Z,61.52
2023-03-28T02:50:47.705Z,63.05
2023-03-28T02:51:45.704Z,59.22
2023-03-28T02:52:45.685Z,55.47
2023-03-28T02:53:45.673Z,58.13
2023-03-28T02:54:45.675Z,61.02
2023-03-28T02:55:45.657Z,65.37
2023-03-28T02:56:45.686Z,56.57
2023-03-28T02:57:45.640Z,59.39
2023-03-28T02:58:45.648Z,56.82
2023-03-28T02:59:45.620Z,59.70
2023-03-28T03:00:45.628Z,62.28
2023-03-28T03:01:45.681Z,56.76
2023-03-28T03:02:45.630Z,60.36
2023-03-28T03:03:45.645Z,56.88
2023-03-28T03:04:45.609Z,53.94
2023-03-28T03:05:45.585Z,52.26
2023-03-28T03:06:45.578Z,62.86
2023-03-28T03:07:45.553Z,58.94
2023-03-28T03:08:45.570Z,58.90
2023-03-28T03:09:45.961Z,64.57
2023-03-28T03:10:46.549Z,60.42
2023-03-28T03:11:45.521Z,60.55
2023-03-28T03:12:45.532Z,57.67
2023-03-28T03:13:45.529Z,60.72
2023-03-28T03:14:45.505Z,60.34
2023-03-28T03:15:45.534Z,59.91
2023-03-28T03:16:45.483Z,58.77
2023-03-28T03:17:45.540Z,59.56
2023-03-28T03:18:45.494Z,65.32
2023-03-28T03:19:45.479Z,63.49
2023-03-28T03:20:45.480Z,63.30
2023-03-28T03:21:45.456Z,65.59
2023-03-28T03:22:45.436Z,62.09
2023-03-28T03:23:45.443Z,57.11
2023-03-28T03:24:45.433Z,59.78
2023-03-28T03:25:45.450Z,57.32
2023-03-28T03:26:45.416Z,55.45
2023-03-28T03:27:45.416Z,57.36
2023-03-28T03:28:45.391Z,59.26
2023-03-28T03:29:45.407Z,61.46
2023-03-28T03:30:45.381Z,61.90
2023-03-28T03:31:45.441Z,63.16
2023-03-28T03:32:45.437Z,59.10
2023-03-28T03:33:45.359Z,62.01
2023-03-28T03:34:45.357Z,62.74
2023-03-28T03:35:45.373Z,65.27
2023-03-28T03:36:45.320Z,63.84
2023-03-28T03:37:45.330Z,58.20
2023-03-28T03:38:45.314Z,64.13
2023-03-28T03:39:46.312Z,67.96
2023-03-28T03:40:45.299Z,62.49
2023-03-28T03:41:45.297Z,59.76
2023-03-28T03:42:45.285Z,62.84
2023-03-28T03:43:47.145Z,61.38
2023-03-28T03:44:47.124Z,62.94
2023-03-28T03:45:45.290Z,57.75
2023-03-28T03:46:45.294Z,62.12
2023-03-28T03:47:45.298Z,62.08
2023-03-28T03:48:49.508Z,62.05
2023-03-28T03:49:46.236Z,62.75
2023-03-28T03:50:45.219Z,66.16
2023-03-28T03:51:45.210Z,62.57
2023-03-28T03:52:45.194Z,57.90
2023-03-28T03:53:46.197Z,62.23
2023-03-28T03:54:45.206Z,64.83
2023-03-28T03:55:45.178Z,62.25
2023-03-28T03:56:45.236Z,61.28
2023-03-28T03:57:45.167Z,60.84
2023-03-28T03:58:45.163Z,62.52
2023-03-28T03:59:45.158Z,60.69
2023-03-28T04:00:45.143Z,64.76
2023-03-28T04:01:45.233Z,62.59
2023-03-28T04:02:45.183Z,63.12
2023-03-28T04:03:45.120Z,60.68
2023-03-28T04:04:45.110Z,61.66
2023-03-28T04:05:45.134Z,66.94
2023-03-28T04:06:45.095Z,64.11
2023-03-28T04:07:45.081Z,61.76
2023-03-28T04:08:45.085Z,62.93
2023-03-28T04:09:45.115Z,62.44
2023-03-28T04:10:46.849Z,62.42
2023-03-28T04:11:46.047Z,62.17
2023-03-28T04:12:45.624Z,62.41
2023-03-28T04:13:45.044Z,61.57
2023-03-28T04:14:45.031Z,62.45
2023-03-28T04:15:45.061Z,62.82
2023-03-28T04:16:45.190Z,63.54
2023-03-28T04:17:45.019Z,64.55
2023-03-28T04:18:44.997Z,63.56
2023-03-28T04:19:44.984Z,66.53
2023-03-28T04:20:44.992Z,63.44
2023-03-28T04:21:44.973Z,61.35
2023-03-28T04:22:45.133Z,64.52
2023-03-28T04:23:44.943Z,66.70
2023-03-28T04:24:44.944Z,65.24
2023-03-28T04:25:44.935Z,62.45
2023-03-28T04:26:44.932Z,65.17
2023-03-28T04:27:45.920Z,65.45
2023-03-28T04:28:44.902Z,63.65
2023-03-28T04:29:44.910Z,64.58
2023-03-28T04:30:44.888Z,65.60
2023-03-28T04:31:44.963Z,65.62
2023-03-28T04:32:44.962Z,65.13
2023-03-28T04:33:44.873Z,66.56
2023-03-28T04:34:44.868Z,62.54
2023-03-28T04:35:44.879Z,64.17
2023-03-28T04:36:44.932Z,65.20
2023-03-28T04:37:44.865Z,65.66
2023-03-28T04:38:44.843Z,67.57
2023-03-28T04:39:44.839Z,63.64
2023-03-28T04:40:44.821Z,64.84
2023-03-28T04:41:44.830Z,63.99
2023-03-28T04:42:44.808Z,63.10
2023-03-28T04:43:44.801Z,64.93
2023-03-28T04:44:44.800Z,63.18
2023-03-28T04:45:44.830Z,65.48
2023-03-28T04:46:44.811Z,63.76
2023-03-28T04:47:44.855Z,64.31
2023-03-28T04:48:44.751Z,65.16
2023-03-28T04:49:44.842Z,65.55
2023-03-28T04:50:45.763Z,69.17
2023-03-28T04:51:44.768Z,65.51
2023-03-28T04:52:44.757Z,66.12
2023-03-28T04:53:44.733Z,65.47
2023-03-28T04:54:44.715Z,64.90
2023-03-28T04:55:44.708Z,64.76
2023-03-28T04:56:44.710Z,64.77
2023-03-28T04:57:44.721Z,64.43
2023-03-28T04:58:44.705Z,64.20
2023-03-28T04:59:44.703Z,63.47
2023-03-28T05:00:44.673Z,66.40
2023-03-28T05:01:44.714Z,68.26
2023-03-28T05:02:44.800Z,68.24
2023-03-28T05:03:44.703Z,71.08
2023-03-28T05:04:44.663Z,69.83
2023-03-28T05:05:44.630Z,67.46
2023-03-28T05:06:44.649Z,64.93
2023-03-28T05:07:44.630Z,65.11
2023-03-28T05:08:44.605Z,65.57
2023-03-28T05:09:44.604Z,64.31
2023-03-28T05:10:44.578Z,64.57
2023-03-28T05:11:44.586Z,66.26
2023-03-28T05:12:44.575Z,65.81
2023-03-28T05:13:44.597Z,65.51
2023-03-28T05:14:44.580Z,66.91
2023-03-28T05:15:44.559Z,66.05
2023-03-28T05:16:44.588Z,64.59
2023-03-28T05:17:44.558Z,64.16
2023-03-28T05:18:44.526Z,64.44
2023-03-28T05:19:44.515Z,70.50
2023-03-28T05:20:44.521Z,67.52
2023-03-28T05:21:44.519Z,70.15
2023-03-28T05:22:44.487Z,64.90
2023-03-28T05:23:51.520Z,66.73
2023-03-28T05:24:45.479Z,68.53
2023-03-28T05:25:44.468Z,65.77
2023-03-28T05:26:44.451Z,66.93
2023-03-28T05:27:44.456Z,67.36
2023-03-28T05:28:45.218Z,67.45
2023-03-28T05:29:44.445Z,66.95
2023-03-28T05:30:44.498Z,67.80
2023-03-28T05:31:44.435Z,66.82
2023-03-28T05:32:44.447Z,68.53
2023-03-28T05:33:44.421Z,69.68
2023-03-28T05:34:44.399Z,65.50
2023-03-28T05:35:44.775Z,69.44
2023-03-28T05:36:44.385Z,68.65
2023-03-28T05:37:46.778Z,70.90
2023-03-28T05:38:44.448Z,66.59
2023-03-28T05:39:44.370Z,68.34
2023-03-28T05:40:44.416Z,67.04
2023-03-28T05:41:44.340Z,67.36
2023-03-28T05:42:44.377Z,66.23
2023-03-28T05:43:44.328Z,67.31
2023-03-28T05:44:44.331Z,68.38
2023-03-28T05:45:44.334Z,68.13
2023-03-28T05:46:44.296Z,66.55
2023-03-28T05:47:44.351Z,65.18
2023-03-28T05:48:44.290Z,68.57
2023-03-28T05:49:45.327Z,64.15
2023-03-28T05:50:44.275Z,67.29
2023-03-28T05:51:44.310Z,66.78
2023-03-28T05:52:44.284Z,66.58
2023-03-28T05:53:44.257Z,68.01
2023-03-28T05:54:50.334Z,68.56
2023-03-28T05:55:45.222Z,66.26
2023-03-28T05:56:44.292Z,68.02
2023-03-28T05:57:44.249Z,66.97
2023-03-28T05:58:44.247Z,66.17
2023-03-28T05:59:44.205Z,66.39
2023-03-28T06:00:44.211Z,69.45
2023-03-28T06:01:44.194Z,66.42
2023-03-28T06:02:44.227Z,69.43
2023-03-28T06:03:44.222Z,68.26
2023-03-28T06:04:44.230Z,67.93
2023-03-28T06:05:44.736Z,67.91
2023-03-28T06:06:44.147Z,67.81
2023-03-28T06:07:44.147Z,67.24
2023-03-28T06:08:44.173Z,66.61
2023-03-28T06:09:44.144Z,67.17
2023-03-28T06:10:44.142Z,67.58
2023-03-28T06:11:44.747Z,65.58
2023-03-28T06:12:44.103Z,67.97
2023-03-28T06:13:44.104Z,66.98
2023-03-28T06:14:44.075Z,65.81
2023-03-28T06:15:44.070Z,67.54
2023-03-28T06:16:44.088Z,65.66
2023-03-28T06:17:44.087Z,64.80
2023-03-28T06:18:44.116Z,65.39
2023-03-28T06:19:44.085Z,63.88
2023-03-28T06:20:44.049Z,63.93
2023-03-28T06:21:44.018Z,66.24
2023-03-28T06:22:44.011Z,65.73
2023-03-28T06:23:44.019Z,67.12
2023-03-28T06:24:44.005Z,65.10
2023-03-28T06:25:44.009Z,65.45
2023-03-28T06:26:45.006Z,66.59
2023-03-28T06:27:44.755Z,66.89
2023-03-28T06:28:43.976Z,63.47
2023-03-28T06:29:43.952Z,64.85
2023-03-28T06:30:43.957Z,65.86
2023-03-28T06:31:44.036Z,62.96
2023-03-28T06:32:44.000Z,67.83
2023-03-28T06:33:43.927Z,64.36
2023-03-28T06:34:43.931Z,64.92
2023-03-28T06:35:44.023Z,67.34
2023-03-28T06:36:43.909Z,65.62
2023-03-28T06:37:43.931Z,62.31
2023-03-28T06:38:43.966Z,63.54
2023-03-28T06:39:44.244Z,66.55
2023-03-28T06:40:43.910Z,65.62
2023-03-28T06:41:43.901Z,66.84
2023-03-28T06:42:43.942Z,63.45
2023-03-28T06:43:43.859Z,65.42
2023-03-28T06:44:43.858Z,63.79
2023-03-28T06:45:43.837Z,69.02
2023-03-28T06:46:44.330Z,65.78
2023-03-28T06:47:43.898Z,66.51
2023-03-28T06:48:43.848Z,65.78
2023-03-28T06:49:43.876Z,66.42
2023-03-28T06:50:44.645Z,67.58
2023-03-28T06:51:43.802Z,66.98
2023-03-28T06:52:43.812Z,64.97
2023-03-28T06:53:44.296Z,65.19
2023-03-28T06:54:46.015Z,67.17
2023-03-28T06:55:43.762Z,64.42
2023-03-28T06:56:43.784Z,67.24
2023-03-28T06:57:43.750Z,66.38
2023-03-28T06:58:43.737Z,64.55
2023-03-28T06:59:43.744Z,66.06
2023-03-28T07:02:51.026Z,69.06
2023-03-28T07:03:52.441Z,66.66
2023-03-28T07:04:52.371Z,66.13
2023-03-28T07:05:50.853Z,64.04
2023-03-28T07:06:50.833Z,65.50
2023-03-28T07:07:50.847Z,67.63
2023-03-28T07:08:50.852Z,64.77
2023-03-28T07:09:50.813Z,64.97
2023-03-28T07:10:50.810Z,66.49
2023-03-28T07:11:50.797Z,62.21
2023-03-28T07:12:50.796Z,63.04
2023-03-28T07:13:51.422Z,64.44
2023-03-28T07:14:50.801Z,64.24
2023-03-28T07:15:50.780Z,64.05
2023-03-28T07:16:50.776Z,65.96
2023-03-28T07:17:50.780Z,65.93
2023-03-28T07:18:50.756Z,64.97
2023-03-28T07:19:50.750Z,65.74
2023-03-28T07:21:01.514Z,67.87
2023-03-28T07:21:51.759Z,63.55
2023-03-28T07:22:50.741Z,64.94
2023-03-28T07:23:50.757Z,66.95
2023-03-28T07:24:50.712Z,67.51
2023-03-28T07:25:50.685Z,64.25
2023-03-28T07:26:52.075Z,64.51
2023-03-28T07:27:51.685Z,65.14
2023-03-28T07:28:50.679Z,67.46
2023-03-28T07:29:50.672Z,66.82
2023-03-28T07:30:50.671Z,65.76
2023-03-28T07:31:50.658Z,65.27
2023-03-28T07:32:59.793Z,65.79
2023-03-28T07:33:51.659Z,65.80
2023-03-28T07:34:51.426Z,63.58
2023-03-28T07:35:50.681Z,66.95
2023-03-28T07:36:50.619Z,66.80
2023-03-28T07:37:50.618Z,67.64
2023-03-28T07:38:50.588Z,64.85
2023-03-28T07:39:50.578Z,65.80
2023-03-28T07:40:50.595Z,65.18
2023-03-28T07:41:50.966Z,65.70
2023-03-28T07:42:50.592Z,64.25
2023-03-28T07:43:50.578Z,64.06
2023-03-28T07:44:50.568Z,62.79
2023-03-28T07:45:50.537Z,65.27
2023-03-28T07:46:50.518Z,65.57
2023-03-28T07:47:50.554Z,65.26
2023-03-28T07:48:51.597Z,66.31
2023-03-28T07:49:52.635Z,64.01
2023-03-28T07:50:51.585Z,62.55
2023-03-28T07:51:51.686Z,65.19
2023-03-28T07:52:51.588Z,65.31
2023-03-28T07:53:51.569Z,65.80
2023-03-28T07:54:51.579Z,63.22
2023-03-28T07:55:54.955Z,64.66
2023-03-28T07:56:52.659Z,65.02
2023-03-28T07:57:51.598Z,66.37
2023-03-28T07:58:51.529Z,65.94
2023-03-28T07:59:51.537Z,64.61
2023-03-28T08:00:52.564Z,66.67
2023-03-28T08:01:51.513Z,64.03
2023-03-28T08:02:51.551Z,66.29
2023-03-28T08:03:51.635Z,65.59
2023-03-28T08:04:51.504Z,65.29
2023-03-28T08:05:51.706Z,64.66
2023-03-28T08:06:51.464Z,64.84
2023-03-28T08:07:51.456Z,64.77
2023-03-28T08:08:51.466Z,63.00
2023-03-28T08:09:51.443Z,63.74
2023-03-28T08:10:51.697Z,63.42
2023-03-28T08:11:52.060Z,65.98
2023-03-28T08:12:51.437Z,62.67
2023-03-28T08:13:51.445Z,64.31
2023-03-28T08:14:51.427Z,62.73
2023-03-28T08:15:53.003Z,64.90
2023-03-28T08:16:51.405Z,62.71
2023-03-28T08:17:51.454Z,66.45
2023-03-28T08:19:03.545Z,65.75
2023-03-28T08:19:53.385Z,65.36
2023-03-28T08:20:51.363Z,67.06
2023-03-28T08:21:51.341Z,68.34
2023-03-28T08:22:51.958Z,64.53
2023-03-28T08:23:51.373Z,64.65
2023-03-28T08:24:51.328Z,64.78
2023-03-28T08:25:51.332Z,65.86
2023-03-28T08:26:51.293Z,64.86
2023-03-28T08:27:51.324Z,64.59
2023-03-28T08:28:51.288Z,65.03
2023-03-28T08:29:51.290Z,64.73
2023-03-28T08:30:51.324Z,66.10
2023-03-28T08:31:51.628Z,66.49
2023-03-28T08:32:51.346Z,67.62
2023-03-28T08:33:51.272Z,67.04
2023-03-28T08:34:51.279Z,65.89
2023-03-28T08:35:51.261Z,66.87
2023-03-28T08:36:51.224Z,66.63
2023-03-28T08:37:51.235Z,67.26
2023-03-28T08:38:51.210Z,66.50
2023-03-28T08:39:51.213Z,65.68
2023-03-28T08:40:51.234Z,63.86
2023-03-28T08:41:51.198Z,65.95
2023-03-28T08:42:51.177Z,65.69
2023-03-28T08:43:51.184Z,65.16
2023-03-28T08:44:52.081Z,65.91
2023-03-28T08:45:51.163Z,65.33
2023-03-28T08:46:51.229Z,64.60
2023-03-28T08:47:51.182Z,64.10
2023-03-28T08:48:51.125Z,65.39
2023-03-28T08:49:51.190Z,66.44
2023-03-28T08:50:51.148Z,66.36
2023-03-28T08:51:51.120Z,65.42
2023-03-28T08:52:51.152Z,65.63
2023-03-28T08:53:51.096Z,66.24
2023-03-28T08:54:52.034Z,63.52
2023-03-28T08:55:53.535Z,66.00
2023-03-28T08:56:52.118Z,64.81
2023-03-28T08:57:51.070Z,64.00
2023-03-28T08:58:51.064Z,64.17
2023-03-28T08:59:51.058Z,64.98
2023-03-28T09:00:52.576Z,67.68
2023-03-28T09:01:51.245Z,62.30
2023-03-28T09:02:52.355Z,63.59
2023-03-28T09:03:52.069Z,66.29
2023-03-28T09:04:51.013Z,68.05
2023-03-28T09:05:51.017Z,64.60
2023-03-28T09:06:50.992Z,64.82
2023-03-28T09:07:50.986Z,65.63
2023-03-28T09:08:50.999Z,63.47
2023-03-28T09:09:51.012Z,65.22
2023-03-28T09:10:50.990Z,65.15
2023-03-28T09:11:50.969Z,66.58
2023-03-28T09:12:51.458Z,64.55
2023-03-28T09:13:50.938Z,63.17
2023-03-28T09:14:52.356Z,63.47
2023-03-28T09:15:52.602Z,66.33
2023-03-28T09:16:51.185Z,65.59
2023-03-28T09:17:50.964Z,67.62
2023-03-28T09:18:50.907Z,65.72
2023-03-28T09:19:50.896Z,67.91
2023-03-28T09:20:50.884Z,64.30
2023-03-28T09:21:51.011Z,63.53
2023-03-28T09:22:50.866Z,67.07
2023-03-28T09:23:52.057Z,68.65
2023-03-28T09:24:50.858Z,63.39
2023-03-28T09:25:50.847Z,66.32
2023-03-28T09:26:50.858Z,63.00
2023-03-28T09:27:50.837Z,64.78
2023-03-28T09:28:51.215Z,65.60
2023-03-28T09:29:50.822Z,63.52
2023-03-28T09:30:50.807Z,64.13
2023-03-28T09:31:51.617Z,64.16
2023-03-28T09:32:50.808Z,63.92
2023-03-28T09:33:50.799Z,66.77
2023-03-28T09:34:50.800Z,66.62
2023-03-28T09:35:50.788Z,65.45
2023-03-28T09:36:51.823Z,65.01
2023-03-28T09:37:50.778Z,66.73
2023-03-28T09:38:50.889Z,64.10
2023-03-28T09:39:50.992Z,67.68
2023-03-28T09:40:50.819Z,66.96
2023-03-28T09:41:50.715Z,65.16
2023-03-28T09:42:50.721Z,64.74
2023-03-28T09:43:50.707Z,63.25
2023-03-28T09:44:54.596Z,66.71
2023-03-28T09:45:51.784Z,67.31
2023-03-28T09:46:50.723Z,64.54
2023-03-28T09:47:51.501Z,65.10
2023-03-28T09:48:50.901Z,66.15
2023-03-28T09:49:56.422Z,64.60
2023-03-28T09:50:53.090Z,63.15
2023-03-28T09:51:50.648Z,66.30
2023-03-28T09:52:51.429Z,64.33
2023-03-28T09:53:50.618Z,64.73
2023-03-28T09:54:50.626Z,65.36
2023-03-28T09:56:03.285Z,65.54
2023-03-28T09:56:52.645Z,64.28
2023-03-28T09:57:50.598Z,67.10
2023-03-28T09:58:51.460Z,62.54
2023-03-28T09:59:51.565Z,65.74
2023-03-28T10:00:52.519Z,66.37
2023-03-28T10:01:50.678Z,63.69
2023-03-28T10:02:50.628Z,63.90
2023-03-28T10:03:51.471Z,65.59
2023-03-28T10:04:50.581Z,66.48
2023-03-28T10:05:50.531Z,67.08
2023-03-28T10:06:50.555Z,65.08
2023-03-28T10:07:50.540Z,63.37
2023-03-28T10:08:50.531Z,64.71
2023-03-28T10:09:50.518Z,63.58
2023-03-28T10:10:52.523Z,63.54
2023-03-28T10:11:50.510Z,61.56
2023-03-28T10:12:50.494Z,65.67
2023-03-28T10:13:50.470Z,61.99
2023-03-28T10:14:50.519Z,63.19
2023-03-28T10:15:50.578Z,64.69
2023-03-28T10:16:50.448Z,64.71
2023-03-28T10:17:50.511Z,67.38
2023-03-28T10:18:50.982Z,67.01
2023-03-28T10:19:50.448Z,66.31
2023-03-28T10:20:50.410Z,64.72
2023-03-28T10:21:50.469Z,65.45
2023-03-28T10:22:50.385Z,66.18
2023-03-28T10:23:50.447Z,65.04
2023-03-28T10:24:50.379Z,64.35
2023-03-28T10:25:50.403Z,65.98
2023-03-28T10:26:50.495Z,68.43
2023-03-28T10:27:50.371Z,67.48
2023-03-28T10:28:50.405Z,66.62
2023-03-28T10:29:50.396Z,64.89
2023-03-28T10:30:50.367Z,64.31
2023-03-28T10:31:50.350Z,64.62
2023-03-28T10:32:50.338Z,65.61
2023-03-28T10:33:50.297Z,63.45
2023-03-28T10:34:50.315Z,64.59
2023-03-28T10:35:50.316Z,66.92
2023-03-28T10:36:50.338Z,66.77
2023-03-28T10:37:50.332Z,64.28
2023-03-28T10:38:50.278Z,65.18
2023-03-28T10:39:50.265Z,65.20
2023-03-28T10:40:50.279Z,65.34
2023-03-28T10:41:50.269Z,62.11
2023-03-28T10:42:50.241Z,61.75
2023-03-28T10:43:50.572Z,63.42
2023-03-28T10:44:50.253Z,64.96
2023-03-28T10:45:50.249Z,63.65
2023-03-28T10:46:51.229Z,64.16
2023-03-28T10:47:52.006Z,62.89
2023-03-28T10:48:50.192Z,64.40
2023-03-28T10:49:50.179Z,64.99
2023-03-28T10:50:50.208Z,66.17
2023-03-28T10:51:50.191Z,66.50
2023-03-28T10:52:50.355Z,64.29
2023-03-28T10:53:50.205Z,65.09
2023-03-28T10:54:50.203Z,65.54
2023-03-28T10:55:51.139Z,64.86
2023-03-28T10:56:50.218Z,66.98
2023-03-28T10:57:50.127Z,65.91
2023-03-28T10:58:50.134Z,66.29
2023-03-28T10:59:50.102Z,65.35
2023-03-28T11:00:50.093Z,65.54
2023-03-28T11:01:51.120Z,66.45
2023-03-28T11:02:50.170Z,68.78
2023-03-28T11:03:50.158Z,66.59
2023-03-28T11:04:50.602Z,69.36
2023-03-28T11:06:05.743Z,65.80
2023-03-28T11:06:52.058Z,64.65
2023-03-28T11:07:50.062Z,66.76
2023-03-28T11:08:50.057Z,66.47
2023-03-28T11:09:50.031Z,65.84
2023-03-28T11:10:50.037Z,67.15
2023-03-28T11:11:50.005Z,66.71
2023-03-28T11:12:55.076Z,66.26
2023-03-28T11:13:52.010Z,64.75
2023-03-28T11:14:50.008Z,64.95
2023-03-28T11:15:50.073Z,66.73
2023-03-28T11:16:49.994Z,65.56
2023-03-28T11:17:50.055Z,65.94
2023-03-28T11:18:49.989Z,66.33
2023-03-28T11:19:49.977Z,67.79
2023-03-28T11:20:49.946Z,69.41
2023-03-28T11:21:49.970Z,64.99
2023-03-28T11:23:02.756Z,65.77
2023-03-28T11:23:51.899Z,65.28
2023-03-28T11:24:49.931Z,64.52
2023-03-28T11:25:49.902Z,64.50
2023-03-28T11:26:49.916Z,62.07
2023-03-28T11:27:50.992Z,63.43
2023-03-28T11:28:49.923Z,64.91
2023-03-28T11:29:49.867Z,65.03
2023-03-28T11:30:49.855Z,63.36
2023-03-28T11:31:49.947Z,63.83
2023-03-28T11:32:49.908Z,61.94
2023-03-28T11:33:49.836Z,62.62
2023-03-28T11:34:49.915Z,64.17
2023-03-28T11:35:49.863Z,62.36
2023-03-28T11:36:49.904Z,62.59
2023-03-28T11:37:49.825Z,62.93
2023-03-28T11:38:50.509Z,63.59
2023-03-28T11:39:49.787Z,62.24
2023-03-28T11:40:49.793Z,62.99
2023-03-28T11:41:49.805Z,64.66
2023-03-28T11:42:49.806Z,64.23
2023-03-28T11:43:49.773Z,64.74
2023-03-28T11:44:49.752Z,65.61
2023-03-28T11:45:51.962Z,62.04
2023-03-28T11:46:50.767Z,63.07
2023-03-28T11:47:49.747Z,63.42
2023-03-28T11:48:49.738Z,62.92
2023-03-28T11:49:49.696Z,65.33
2023-03-28T11:50:49.743Z,64.33
2023-03-28T11:51:49.701Z,63.68
2023-03-28T11:52:49.691Z,65.51
2023-03-28T11:53:49.670Z,65.33
2023-03-28T11:54:49.658Z,65.65
2023-03-28T11:55:50.093Z,65.67
2023-03-28T11:56:49.748Z,66.36
2023-03-28T11:57:49.683Z,64.56
2023-03-28T11:58:49.703Z,62.48
2023-03-28T11:59:50.587Z,60.95
2023-03-28T12:00:49.778Z,64.84
2023-03-28T12:01:49.633Z,64.66
2023-03-28T12:02:49.728Z,67.83
2023-03-28T12:03:49.721Z,68.50
2023-03-28T12:04:49.594Z,63.90
2023-03-28T12:05:49.587Z,64.51
2023-03-28T12:07:01.906Z,62.38
2023-03-28T12:07:51.557Z,61.09
2023-03-28T12:08:49.642Z,67.53
2023-03-28T12:09:50.463Z,65.18
2023-03-28T12:10:49.581Z,64.83
2023-03-28T12:11:49.569Z,64.77
2023-03-28T12:12:49.531Z,64.04
2023-03-28T12:13:55.468Z,63.19
2023-03-28T12:14:51.529Z,63.01
2023-03-28T12:15:49.502Z,64.86
2023-03-28T12:16:49.503Z,64.10
2023-03-28T12:17:49.538Z,64.23
2023-03-28T12:18:49.494Z,64.11
2023-03-28T12:19:49.483Z,66.35
2023-03-28T12:20:49.465Z,65.09
2023-03-28T12:21:49.470Z,67.09
2023-03-28T12:22:49.441Z,66.39
2023-03-28T12:23:49.425Z,64.74
2023-03-28T12:24:49.428Z,65.80
2023-03-28T12:25:49.438Z,66.93
2023-03-28T12:26:50.078Z,65.12
2023-03-28T12:27:49.413Z,66.45
2023-03-28T12:28:49.397Z,66.16
2023-03-28T12:29:49.381Z,64.46
2023-03-28T12:30:49.394Z,63.69
2023-03-28T12:31:49.377Z,63.74
2023-03-28T12:32:49.420Z,65.00
2023-03-28T12:33:49.359Z,62.60
2023-03-28T12:34:49.356Z,64.18
2023-03-28T12:35:49.369Z,65.58
2023-03-28T12:36:49.349Z,64.19
2023-03-28T12:37:49.470Z,61.79
2023-03-28T12:38:49.351Z,63.47
2023-03-28T12:39:49.326Z,66.19
2023-03-28T12:40:49.319Z,62.63
2023-03-28T12:41:49.299Z,65.33
2023-03-28T12:42:49.284Z,63.75
2023-03-28T12:43:49.278Z,63.50
2023-03-28T12:44:49.277Z,64.29
2023-03-28T12:45:49.323Z,62.40
2023-03-28T12:46:49.273Z,64.37
2023-03-28T12:47:49.297Z,65.68
2023-03-28T12:48:49.244Z,65.23
2023-03-28T12:49:49.255Z,64.08
2023-03-28T12:50:49.245Z,66.49
2023-03-28T12:51:49.293Z,66.40
2023-03-28T12:52:49.219Z,66.09
2023-03-28T12:53:49.217Z,63.02
2023-03-28T12:54:49.235Z,65.69
2023-03-28T12:55:49.188Z,64.25
2023-03-28T12:56:49.211Z,62.36